Belden, New York
Current Conditions -  °F | °C
As of 2:53 AM on Saturday 25 Oct 2014 (Local Time) from KBGM Reporting Station
Clear Clear  
Wind Chill: 34°   Ceiling: Unl
Heat Index: 39°   Visibility: 10mi
Dew Point: 32°   Wind: 7mph
Humidity: 76%   Direction: 250°WSW
Pressure: 29.89"   Gusts: NA
Location:  42.1976°N, 75.6682°W
Report Text: KBGM 250653Z AUTO 25006KT 10SM CLR 04/00 A2989 RMK AO2 SLP125 T00390000
Loading
Personal Weather Stations






























Interactive Weather Map
Tropical Storm Tracking
New forecast layout! Learn more

10-Day Weather Forecast

Advertisements
Track Severe Weather on mobile